createdAt,value
2023-01-29T00:03:07.973Z,62.17
2023-01-29T00:08:11.367Z,62.16
2023-01-29T00:13:14.731Z,61.73
2023-01-29T00:18:18.014Z,60.78
2023-01-29T00:23:21.282Z,60.13
2023-01-29T00:28:24.533Z,60.06
2023-01-29T00:33:29.364Z,59.91
2023-01-29T00:38:34.657Z,60.08
2023-01-29T00:43:56.958Z,60.55
2023-01-29T00:49:00.966Z,60.87
2023-01-29T00:54:07.027Z,61.33
2023-01-29T00:59:10.175Z,61.30
2023-01-29T01:04:14.501Z,60.94
2023-01-29T01:09:36.696Z,61.19
2023-01-29T01:14:43.276Z,60.69
2023-01-29T01:19:46.670Z,60.78
2023-01-29T01:24:50.638Z,61.00
2023-01-29T01:29:53.959Z,60.93
2023-01-29T01:34:57.241Z,60.37
2023-01-29T01:40:00.588Z,60.18
2023-01-29T01:45:08.153Z,60.16
2023-01-29T01:50:32.753Z,60.14
2023-01-29T01:55:39.825Z,60.39
2023-01-29T02:00:43.771Z,59.87
2023-01-29T02:06:06.217Z,59.49
2023-01-29T02:11:09.771Z,59.25
2023-01-29T02:16:13.032Z,58.90
2023-01-29T02:22:01.147Z,58.76
2023-01-29T02:27:30.745Z,58.08
2023-01-29T02:32:54.589Z,58.08
2023-01-29T02:38:13.221Z,58.15
2023-01-29T02:43:33.295Z,58.45
2023-01-29T02:48:43.475Z,58.63
2023-01-29T02:54:17.173Z,58.77
2023-01-29T02:59:40.194Z,58.91
2023-01-29T03:04:54.063Z,59.10
2023-01-29T03:09:58.013Z,58.65
2023-01-29T03:15:11.755Z,58.45
2023-01-29T03:20:21.898Z,58.41
2023-01-29T03:25:46.639Z,58.29
2023-01-29T03:31:13.871Z,58.18
2023-01-29T03:36:27.334Z,58.07
2023-01-29T03:41:41.469Z,57.83
2023-01-29T03:47:11.190Z,57.75
2023-01-29T03:52:22.185Z,57.70
2023-01-29T03:57:37.359Z,57.53
2023-01-29T04:03:20.768Z,57.42
2023-01-29T04:08:29.086Z,57.44
2023-01-29T04:13:34.590Z,57.76
2023-01-29T04:18:38.507Z,58.02
2023-01-29T04:23:44.087Z,57.97
2023-01-29T04:29:06.990Z,57.72
2023-01-29T04:34:13.118Z,58.43
2023-01-29T04:39:22.554Z,58.49
2023-01-29T04:44:37.742Z,58.96
2023-01-29T04:49:49.427Z,59.28
2023-01-29T04:55:04.803Z,59.51
2023-01-29T05:00:24.793Z,59.78
2023-01-29T05:07:05.095Z,59.77
2023-01-29T05:12:11.477Z,59.41
2023-01-29T05:17:19.007Z,59.31
2023-01-29T05:22:23.495Z,59.16
2023-01-29T05:27:52.801Z,59.22
2023-01-29T05:32:56.265Z,59.41
2023-01-29T05:37:59.589Z,59.67
2023-01-29T05:43:03.124Z,59.67
2023-01-29T05:48:06.474Z,59.68
2023-01-29T05:53:09.834Z,59.37
2023-01-29T05:58:14.001Z,58.61
2023-01-29T06:03:17.313Z,57.97
2023-01-29T06:08:20.448Z,57.25
2023-01-29T06:13:23.852Z,56.76
2023-01-29T06:18:27.124Z,56.57
2023-01-29T06:23:31.371Z,56.54
2023-01-29T06:28:34.831Z,56.80
2023-01-29T06:33:38.191Z,56.61
2023-01-29T06:38:41.571Z,56.25
2023-01-29T06:43:46.813Z,55.91
2023-01-29T06:48:50.153Z,55.99
2023-01-29T06:53:54.827Z,55.63
2023-01-29T06:58:58.244Z,55.51
2023-01-29T07:04:01.598Z,55.43
2023-01-29T07:09:05.386Z,55.30
2023-01-29T07:14:09.062Z,55.10
2023-01-29T07:19:15.963Z,55.02
2023-01-29T07:24:19.599Z,54.93
2023-01-29T07:29:22.939Z,55.02
2023-01-29T07:34:26.208Z,55.06
2023-01-29T07:39:29.491Z,54.91
2023-01-29T07:44:32.886Z,54.75
2023-01-29T07:49:36.328Z,54.26
2023-01-29T07:54:39.534Z,54.42
2023-01-29T07:59:43.247Z,54.22
2023-01-29T08:04:46.541Z,53.92
2023-01-29T08:09:49.778Z,53.80
2023-01-29T08:14:53.122Z,53.84
2023-01-29T08:19:56.810Z,54.21
2023-01-29T08:25:08.199Z,54.33
2023-01-29T08:30:12.604Z,54.51
2023-01-29T08:35:16.041Z,53.54
2023-01-29T08:40:19.699Z,53.54
2023-01-29T08:45:23.076Z,53.70
2023-01-29T08:50:26.941Z,53.76
2023-01-29T08:55:30.374Z,53.30
2023-01-29T09:00:35.162Z,52.94
2023-01-29T09:05:40.592Z,52.98
2023-01-29T09:10:43.896Z,52.80
2023-01-29T09:15:47.282Z,52.84
2023-01-29T09:20:50.598Z,53.25
2023-01-29T09:25:54.154Z,53.33
2023-01-29T09:31:01.794Z,53.95
2023-01-29T09:36:06.701Z,54.12
2023-01-29T09:41:32.850Z,54.13
2023-01-29T09:46:42.398Z,54.08
2023-01-29T09:51:53.204Z,54.08
2023-01-29T09:56:58.409Z,54.12
2023-01-29T10:02:24.995Z,54.42
2023-01-29T10:07:56.675Z,54.90
2023-01-29T10:13:19.064Z,55.21
2023-01-29T10:18:41.641Z,54.98
2023-01-29T10:23:54.625Z,55.46
2023-01-29T10:29:01.820Z,55.73
2023-01-29T10:34:17.575Z,55.78
2023-01-29T10:39:27.193Z,56.15
2023-01-29T10:44:43.878Z,66.63
2023-01-29T10:49:59.202Z,58.75
2023-01-29T10:55:24.789Z,55.39
2023-01-29T11:00:34.370Z,54.79
2023-01-29T11:05:45.276Z,54.98
2023-01-29T11:11:12.955Z,55.01
2023-01-29T11:16:17.864Z,55.59
2023-01-29T11:21:26.142Z,55.94
2023-01-29T11:26:30.300Z,56.35
2023-01-29T11:31:40.569Z,56.19
2023-01-29T11:36:45.486Z,56.70
2023-01-29T11:41:59.679Z,56.20
2023-01-29T11:47:17.567Z,56.24
2023-01-29T11:52:26.036Z,56.38
2023-01-29T11:57:39.196Z,55.55
2023-01-29T12:02:46.802Z,54.45
2023-01-29T12:07:55.813Z,53.44
2023-01-29T12:13:20.151Z,53.44
2023-01-29T12:18:39.976Z,53.81
2023-01-29T12:24:08.358Z,53.80
2023-01-29T12:29:32.661Z,53.48
2023-01-29T12:34:56.079Z,52.61
2023-01-29T12:40:01.228Z,51.81
2023-01-29T12:45:11.147Z,51.77
2023-01-29T12:50:26.640Z,51.85
2023-01-29T12:55:55.913Z,52.04
2023-01-29T13:01:16.023Z,52.19
2023-01-29T13:06:31.572Z,52.43
2023-01-29T13:11:54.677Z,52.63
2023-01-29T13:17:11.655Z,52.54
2023-01-29T13:22:42.993Z,52.50
2023-01-29T13:27:48.063Z,52.92
2023-01-29T13:32:54.484Z,53.16
2023-01-29T13:37:58.558Z,68.65
2023-01-29T13:43:04.043Z,67.59
2023-01-29T13:48:22.138Z,56.03
2023-01-29T13:53:35.993Z,47.88
2023-01-29T13:58:39.453Z,47.90
2023-01-29T14:04:03.634Z,48.50
2023-01-29T14:09:46.599Z,49.18
2023-01-29T14:14:51.150Z,49.58
2023-01-29T14:20:04.569Z,49.90
2023-01-29T14:25:19.688Z,50.25
2023-01-29T14:30:27.878Z,50.18
2023-01-29T14:35:34.253Z,50.82
2023-01-29T14:40:41.949Z,51.46
2023-01-29T14:45:50.524Z,51.82
2023-01-29T14:51:00.117Z,51.91
2023-01-29T14:56:12.786Z,52.13
2023-01-29T15:01:27.761Z,52.24
2023-01-29T15:06:44.421Z,52.21
2023-01-29T15:12:42.513Z,52.00
2023-01-29T15:17:52.697Z,52.25
2023-01-29T15:22:57.657Z,52.25
2023-01-29T15:28:03.969Z,52.47
2023-01-29T15:33:10.980Z,52.68
2023-01-29T15:38:20.008Z,52.81
2023-01-29T15:43:30.315Z,52.90
2023-01-29T15:48:45.985Z,52.90
2023-01-29T15:53:52.525Z,53.15
2023-01-29T15:58:59.762Z,53.27
2023-01-29T16:04:04.530Z,53.48
2023-01-29T16:09:11.803Z,53.44
2023-01-29T16:14:21.881Z,53.54
2023-01-29T16:19:29.275Z,53.65
2023-01-29T16:24:36.720Z,53.70
2023-01-29T16:29:40.311Z,53.90
2023-01-29T16:34:48.498Z,54.05
2023-01-29T16:39:55.675Z,54.15
2023-01-29T16:45:24.691Z,54.13
2023-01-29T16:50:53.822Z,54.16
2023-01-29T16:56:09.200Z,54.10
2023-01-29T17:01:14.836Z,54.29
2023-01-29T17:06:24.527Z,54.28
2023-01-29T17:11:41.844Z,54.45
2023-01-29T17:17:15.710Z,54.44
2023-01-29T17:22:19.019Z,54.43
2023-01-29T17:43:34.890Z,54.82
2023-01-29T17:48:38.594Z,55.00
2023-01-29T17:53:45.820Z,54.95
2023-01-29T17:58:50.767Z,54.53
2023-01-29T18:03:54.565Z,54.24
2023-01-29T18:08:58.765Z,54.13
2023-01-29T18:14:04.583Z,53.78
2023-01-29T18:19:31.291Z,53.80
2023-01-29T18:24:36.351Z,53.93
2023-01-29T18:29:39.951Z,54.09
2023-01-29T18:34:43.777Z,53.98
2023-01-29T18:39:47.272Z,53.98
2023-01-29T18:44:50.731Z,53.90
2023-01-29T18:49:55.343Z,53.91
2023-01-29T18:54:58.651Z,54.04
2023-01-29T19:00:03.118Z,54.08
2023-01-29T19:05:06.688Z,54.02
2023-01-29T19:10:12.807Z,54.09
2023-01-29T19:15:20.733Z,54.01
2023-01-29T19:20:24.133Z,54.09
2023-01-29T19:25:27.608Z,54.05
2023-01-29T19:38:11.830Z,54.36
2023-01-29T19:43:17.956Z,54.31
2023-01-29T19:48:22.004Z,54.51
2023-01-29T19:53:27.814Z,54.75
2023-01-29T19:58:31.644Z,54.79
2023-01-29T20:03:35.089Z,54.70
2023-01-29T20:08:39.435Z,54.81
2023-01-29T20:13:46.697Z,54.86
2023-01-29T20:18:50.525Z,54.85
2023-01-29T20:23:54.868Z,55.05
2023-01-29T20:28:58.787Z,55.34
2023-01-29T20:34:04.395Z,55.43
2023-01-29T20:39:09.021Z,55.51
2023-01-29T20:44:15.643Z,55.53
2023-01-29T20:49:19.774Z,55.62
2023-01-29T21:02:06.422Z,55.96
2023-01-29T21:07:41.764Z,56.04
2023-01-29T21:12:45.852Z,58.57
2023-01-29T21:17:51.957Z,55.97
2023-01-29T21:22:56.670Z,56.02
2023-01-29T21:28:04.458Z,56.13
2023-01-29T21:33:08.943Z,56.24
2023-01-29T21:38:14.409Z,56.36
2023-01-29T21:43:17.750Z,56.59
2023-01-29T21:48:20.964Z,56.69
2023-01-29T21:53:24.357Z,56.67
2023-01-29T21:58:27.680Z,56.93
2023-01-29T22:03:30.997Z,57.14
2023-01-29T22:08:34.243Z,57.30
2023-01-29T22:13:37.779Z,57.49
2023-01-29T22:18:41.046Z,57.40
2023-01-29T22:23:49.523Z,57.57
2023-01-29T22:28:52.805Z,57.69
2023-01-29T22:33:56.225Z,57.51
2023-01-29T22:39:08.264Z,57.62
2023-01-29T22:44:11.806Z,57.58
2023-01-29T22:49:15.127Z,57.49
2023-01-29T22:54:18.389Z,57.47
2023-01-29T22:59:21.716Z,57.45
2023-01-29T23:04:25.044Z,57.53
2023-01-29T23:09:28.473Z,57.37
2023-01-29T23:14:31.878Z,57.47
2023-01-29T23:19:35.198Z,57.25
2023-01-29T23:24:38.593Z,57.16
2023-01-29T23:29:43.972Z,57.04
2023-01-29T23:34:47.363Z,56.94
2023-01-29T23:39:50.986Z,56.62
2023-01-29T23:44:54.367Z,56.38
2023-01-29T23:49:57.581Z,56.26
2023-01-29T23:55:00.856Z,56.14
